Siasconset, Massachusetts
Current Conditions -  °F | °C
As of 10:53 AM on Sunday 23 Nov 2014 (Local Time) from KACK Reporting Station
Clear Clear  
Wind Chill: 57°   Ceiling: Unl
Heat Index: 57°   Visibility: 10mi
Dew Point: 41°   Wind: 25mph
Humidity: 55%   Direction: 240°WSW
Pressure: 30.17"   Gusts: 32mph
Location:  41.26°N, 69.97°W
Report Text: KACK 231553Z 24022G28KT 10SM CLR 14/05 A3017 RMK AO2 PK WND 24028/1551 SLP217 T01390050 $
Loading
Personal Weather Stations






























Interactive Weather Map New forecast layout! Learn more

10-Day Weather Forecast

Advertisements
Track Severe Weather on mobile